KBWG

Bowling Green-Warren County Regional Airport

Bowling Green, Kentucky, USA
METAR KBWG 170653Z AUTO 19005KT 10SM CLR 05/M01 A3022 RMK AO2 SLP233 T00501006
Observed Flight Rules
Dec-17 @ 06:53 UTC (an hour ago) Visual Flight Rules
Wind Visibility Clouds
190° at 5 knots 10 miles
  • Clear skies
Temperatures Readings
Current 5°C / 41°F
Dewpoint -1°C / 30°F
Humidity 66%
Altimeter 30.22" Hg
Pressure 1023.3 hPa
Elevation 168
METAR KBWG 170653Z AUTO 19005KT 10SM CLR 05/M01 A3022 RMK AO2 SLP233 T00501006
Observed Flight Rules
Dec-17 @ 06:53 UTC
(an hour ago)
VFR
Wind Visibility
190° at 5 knots 10 miles
Clouds
  • Clear skies
Temperature Dewpoint
5°C / 41°F -1°C / 30°F
Humidity Altimeter Pressure
66% 30.22" Hg 1023.3 hPa